Larimers Corner, Washington
Current Conditions -  °F | °C
As of 11:53 AM on Monday 22 Dec 2014 (Local Time) from KPAE Reporting Station
Scattered Clouds Scattered Clouds  
Wind Chill: 47°   Ceiling: Unl
Heat Index: 47°   Visibility: 10mi
Dew Point: 41°   Wind: 3mph
Humidity: 80%   Direction: 280°W
Pressure: 30.37"   Gusts: NA
Location:  47.9468°N, 122.012°W
Report Text: KPAE 221953Z 28003KT 10SM SCT020 08/05 A3037 RMK AO2 SLP285 T00830050
Loading
Personal Weather Stations






























Interactive Weather Map New forecast layout! Learn more

10-Day Weather Forecast

Advertisements
Track Severe Weather on mobile